createdAt,value
2018-05-13T00:01:57.540Z,26.00
2018-05-13T00:04:25.010Z,23.87
2018-05-13T00:06:52.453Z,28.47
2018-05-13T00:09:19.882Z,28.00
2018-05-13T00:11:48.297Z,25.00
2018-05-13T00:17:07.926Z,26.63
2018-05-13T00:35:07.990Z,27.00
2018-05-13T00:37:39.998Z,27.27
2018-05-13T00:40:10.163Z,27.87
2018-05-13T00:42:39.631Z,25.83
2018-05-13T00:45:08.182Z,25.80
2018-05-13T00:47:39.421Z,25.63
2018-05-13T00:50:06.857Z,26.80
2018-05-13T00:52:34.306Z,26.10
2018-05-13T00:55:01.755Z,28.43
2018-05-13T00:57:29.197Z,24.83
2018-05-13T00:59:56.619Z,26.10
2018-05-13T01:02:24.089Z,27.87
2018-05-13T01:04:51.516Z,26.83
2018-05-13T01:07:18.925Z,27.93
2018-05-13T01:09:46.378Z,23.70
2018-05-13T01:12:13.810Z,26.73
2018-05-13T01:14:41.256Z,26.17
2018-05-13T01:17:08.678Z,25.03
2018-05-13T01:19:36.132Z,27.10
2018-05-13T01:22:03.574Z,26.50
2018-05-13T01:24:31.026Z,25.50
2018-05-13T01:27:00.443Z,26.90
2018-05-13T01:29:27.893Z,24.83
2018-05-13T01:31:55.316Z,25.07
2018-05-13T01:34:22.759Z,26.80
2018-05-13T01:36:50.186Z,26.97
2018-05-13T01:39:18.573Z,25.90
2018-05-13T01:41:46.011Z,25.73
2018-05-13T01:44:13.462Z,27.33
2018-05-13T01:46:40.905Z,24.03
2018-05-13T01:49:09.325Z,26.83
2018-05-13T01:51:36.809Z,24.57
2018-05-13T01:54:04.268Z,26.37
2018-05-13T01:56:31.711Z,24.20
2018-05-13T01:58:59.145Z,26.67
2018-05-13T02:01:26.613Z,27.70
2018-05-13T02:03:54.030Z,26.80
2018-05-13T02:06:23.478Z,25.10
2018-05-13T02:08:50.897Z,26.90
2018-05-13T02:11:18.352Z,27.97
2018-05-13T02:13:45.772Z,24.93
2018-05-13T02:16:13.222Z,23.33
2018-05-13T02:18:40.640Z,26.07
2018-05-13T02:21:08.100Z,25.50
2018-05-13T02:23:35.517Z,27.70
2018-05-13T02:26:02.961Z,22.40
2018-05-13T02:28:30.384Z,23.83
2018-05-13T02:30:57.842Z,25.43
2018-05-13T02:33:25.296Z,28.23
2018-05-13T02:35:52.717Z,27.80
2018-05-13T02:38:20.173Z,24.73
2018-05-13T02:40:47.598Z,24.30
2018-05-13T02:43:15.042Z,26.73
2018-05-13T02:45:42.466Z,27.40
2018-05-13T02:48:09.924Z,26.40
2018-05-13T02:50:43.945Z,24.87
2018-05-13T02:53:11.392Z,24.80
2018-05-13T02:55:38.810Z,23.67
2018-05-13T02:58:07.154Z,24.33
2018-05-13T03:00:34.584Z,24.47
2018-05-13T03:03:02.026Z,24.27
2018-05-13T03:05:29.449Z,24.13
2018-05-13T03:07:56.891Z,25.87
2018-05-13T03:10:24.308Z,24.23
2018-05-13T03:12:51.772Z,24.97
2018-05-13T03:15:19.568Z,22.87
2018-05-13T03:17:47.022Z,23.43
2018-05-13T03:20:14.450Z,24.20
2018-05-13T03:22:41.886Z,22.07
2018-05-13T03:25:09.306Z,21.17
2018-05-13T03:27:36.742Z,24.40
2018-05-13T03:30:04.198Z,22.40
2018-05-13T03:32:31.633Z,23.80
2018-05-13T03:34:59.101Z,23.53
2018-05-13T03:37:27.521Z,23.67
2018-05-13T03:39:55.926Z,23.20
2018-05-13T03:42:23.357Z,22.17
2018-05-13T03:44:50.785Z,22.90
2018-05-13T03:47:18.198Z,21.77
2018-05-13T03:49:45.649Z,21.80
2018-05-13T03:52:13.062Z,23.63
2018-05-13T03:54:44.797Z,21.87
2018-05-13T03:57:14.161Z,22.03
2018-05-13T03:59:42.545Z,23.00
2018-05-13T04:02:15.201Z,21.60
2018-05-13T04:04:42.685Z,23.93
2018-05-13T04:07:10.112Z,20.97
2018-05-13T04:09:49.284Z,22.23
2018-05-13T04:12:28.524Z,22.17
2018-05-13T04:17:58.594Z,24.07
2018-05-13T04:20:26.037Z,22.93
2018-05-13T04:22:53.458Z,25.13
2018-05-13T04:25:20.889Z,23.87
2018-05-13T04:27:48.329Z,26.40
2018-05-13T04:30:15.755Z,20.80
2018-05-13T04:32:43.210Z,24.40
2018-05-13T04:35:10.631Z,25.33
2018-05-13T04:37:38.084Z,23.63
2018-05-13T04:40:05.493Z,22.83
2018-05-13T04:42:32.948Z,23.53
2018-05-13T04:45:00.358Z,23.83
2018-05-13T04:47:27.808Z,24.83
2018-05-13T04:49:55.225Z,22.63
2018-05-13T04:52:22.751Z,21.87
2018-05-13T04:54:50.205Z,22.80
2018-05-13T04:57:17.662Z,22.50
2018-05-13T04:59:45.073Z,23.40
2018-05-13T05:02:12.496Z,21.20
2018-05-13T05:04:39.952Z,21.93
2018-05-13T05:07:07.370Z,21.07
2018-05-13T05:09:34.818Z,20.33
2018-05-13T05:12:02.238Z,20.60
2018-05-13T05:14:29.689Z,18.70
2018-05-13T05:16:57.470Z,20.03
2018-05-13T05:19:24.915Z,19.23
2018-05-13T05:21:54.347Z,18.00
2018-05-13T05:24:22.745Z,18.03
2018-05-13T05:26:56.585Z,18.60
2018-05-13T05:29:24.034Z,20.87
2018-05-13T05:31:51.451Z,19.70
2018-05-13T05:34:18.898Z,19.33
2018-05-13T05:36:46.321Z,18.30
2018-05-13T05:39:13.766Z,18.77
2018-05-13T05:41:41.183Z,18.70
2018-05-13T05:44:08.636Z,18.90
2018-05-13T05:46:37.012Z,21.03
2018-05-13T05:49:04.466Z,19.27
2018-05-13T05:51:31.891Z,17.90
2018-05-13T05:54:01.673Z,19.17
2018-05-13T05:56:30.097Z,21.33
2018-05-13T05:58:57.533Z,18.53
2018-05-13T06:01:24.990Z,17.57
2018-05-13T06:03:52.414Z,18.60
2018-05-13T06:06:20.775Z,18.93
2018-05-13T06:08:48.201Z,20.87
2018-05-13T06:11:15.661Z,20.40
2018-05-13T06:13:44.038Z,20.17
2018-05-13T06:16:11.482Z,20.47
2018-05-13T06:18:38.910Z,19.97
2018-05-13T06:21:06.358Z,19.97
2018-05-13T06:23:33.784Z,20.63
2018-05-13T06:26:01.265Z,21.03
2018-05-13T06:28:28.697Z,21.87
2018-05-13T06:30:56.208Z,24.87
2018-05-13T06:33:23.630Z,23.07
2018-05-13T06:35:51.083Z,23.10
2018-05-13T06:38:18.505Z,22.57
2018-05-13T06:40:49.802Z,24.10
2018-05-13T06:43:18.248Z,24.20
2018-05-13T06:45:45.733Z,25.37
2018-05-13T06:48:13.155Z,24.30
2018-05-13T06:50:40.579Z,22.80
2018-05-13T06:53:08.022Z,25.00
2018-05-13T06:55:35.448Z,23.70
2018-05-13T06:58:02.889Z,22.87
2018-05-13T07:00:30.323Z,23.17
2018-05-13T07:02:57.770Z,23.63
2018-05-13T07:05:25.238Z,21.60
2018-05-13T07:07:52.685Z,22.57
2018-05-13T07:10:20.104Z,19.93
2018-05-13T07:12:47.546Z,21.47
2018-05-13T07:15:14.978Z,19.47
2018-05-13T07:17:42.425Z,19.50
2018-05-13T07:20:09.853Z,19.20
2018-05-13T07:22:39.311Z,18.67
2018-05-13T07:25:06.736Z,17.60
2018-05-13T07:27:35.150Z,17.07
2018-05-13T07:30:02.572Z,16.10
2018-05-13T07:32:30.023Z,14.97
2018-05-13T07:34:57.889Z,16.33
2018-05-13T07:37:25.365Z,13.97
2018-05-13T07:39:52.786Z,13.07
2018-05-13T07:42:20.210Z,14.80
2018-05-13T07:44:49.582Z,13.00
2018-05-13T07:47:17.014Z,14.03
2018-05-13T07:49:44.466Z,15.20
2018-05-13T07:52:11.882Z,14.10
2018-05-13T07:54:39.329Z,14.70
2018-05-13T07:57:09.910Z,11.77
2018-05-13T07:59:37.371Z,13.00
2018-05-13T08:02:04.793Z,12.10
2018-05-13T08:04:32.242Z,11.67
2018-05-13T08:06:59.706Z,13.33
2018-05-13T08:09:28.165Z,14.17
2018-05-13T08:11:55.590Z,11.50
2018-05-13T08:14:25.026Z,11.87
2018-05-13T08:16:52.449Z,12.37
2018-05-13T08:19:19.889Z,12.67
2018-05-13T08:21:48.281Z,12.50
2018-05-13T08:24:17.723Z,13.00
2018-05-13T08:26:45.141Z,11.60
2018-05-13T08:29:12.565Z,12.37
2018-05-13T08:31:40.011Z,12.60
2018-05-13T08:34:07.430Z,11.07
2018-05-13T08:36:34.881Z,12.70
2018-05-13T08:39:06.639Z,12.43
2018-05-13T08:41:36.047Z,11.83
2018-05-13T08:44:03.490Z,12.17
2018-05-13T08:46:30.959Z,11.30
2018-05-13T08:48:58.398Z,10.90
2018-05-13T08:51:25.866Z,12.90
2018-05-13T08:53:53.313Z,12.10
2018-05-13T08:56:22.702Z,11.07
2018-05-13T08:58:50.122Z,11.90
2018-05-13T09:01:18.554Z,11.37
2018-05-13T09:03:45.977Z,11.07
2018-05-13T09:06:13.455Z,12.90
2018-05-13T09:08:41.830Z,12.80
2018-05-13T09:11:09.305Z,12.23
2018-05-13T09:13:36.754Z,12.63
2018-05-13T09:16:05.150Z,13.50
2018-05-13T09:18:34.565Z,13.90
2018-05-13T09:21:01.998Z,13.10
2018-05-13T09:23:29.446Z,13.83
2018-05-13T09:25:56.869Z,13.27
2018-05-13T09:28:24.349Z,13.53
2018-05-13T09:30:51.765Z,14.50
2018-05-13T09:33:19.213Z,14.40
2018-05-13T09:35:46.645Z,14.10
2018-05-13T09:38:14.108Z,12.90
2018-05-13T09:40:43.484Z,14.53
2018-05-13T09:43:11.881Z,16.67
2018-05-13T09:45:44.174Z,16.27
2018-05-13T09:48:15.709Z,16.67
2018-05-13T09:50:44.085Z,16.23
2018-05-13T09:53:12.468Z,18.10
2018-05-13T09:55:44.419Z,18.47
2018-05-13T09:58:11.885Z,16.43
2018-05-13T10:00:39.317Z,16.50
2018-05-13T10:03:10.272Z,17.00
2018-05-13T10:05:49.367Z,18.57
2018-05-13T10:08:19.258Z,17.83
2018-05-13T10:10:47.309Z,17.43
2018-05-13T10:13:17.616Z,19.17
2018-05-13T10:15:47.202Z,19.60
2018-05-13T10:18:16.703Z,16.10
2018-05-13T10:23:50.970Z,19.20
2018-05-13T10:26:18.425Z,18.33
2018-05-13T10:28:49.675Z,15.83
2018-05-13T10:31:17.130Z,14.97
2018-05-13T10:33:45.469Z,14.90
2018-05-13T10:36:12.927Z,16.87
2018-05-13T10:38:43.773Z,15.70
2018-05-13T10:41:25.251Z,13.70
2018-05-13T10:43:54.693Z,14.40
2018-05-13T10:46:22.149Z,15.37
2018-05-13T10:48:49.582Z,15.20
2018-05-13T10:51:17.026Z,13.83
2018-05-13T10:53:44.441Z,15.33
2018-05-13T10:56:11.906Z,14.17
2018-05-13T10:58:39.350Z,14.93
2018-05-13T11:01:06.769Z,15.60
2018-05-13T11:03:35.081Z,16.27
2018-05-13T11:06:04.626Z,14.03
2018-05-13T11:08:32.949Z,16.20
2018-05-13T11:11:00.357Z,14.53
2018-05-13T11:13:28.770Z,17.03
2018-05-13T11:15:56.193Z,16.47
2018-05-13T11:18:23.669Z,16.57
2018-05-13T11:20:53.073Z,16.50
2018-05-13T11:23:20.541Z,17.87
2018-05-13T11:25:47.966Z,15.83
2018-05-13T11:28:15.406Z,16.87
2018-05-13T11:30:42.826Z,18.53
2018-05-13T11:33:11.197Z,16.23
2018-05-13T11:35:38.617Z,16.33
2018-05-13T11:38:06.037Z,16.83
2018-05-13T11:40:34.470Z,15.77
2018-05-13T11:43:03.850Z,15.73
2018-05-13T11:45:31.302Z,14.80
2018-05-13T11:47:59.685Z,16.07
2018-05-13T11:50:27.138Z,14.80
2018-05-13T11:52:54.557Z,14.93
2018-05-13T11:55:22.014Z,15.37
2018-05-13T11:57:49.437Z,15.00
2018-05-13T12:00:16.893Z,16.17
2018-05-13T12:02:44.310Z,16.07
2018-05-13T12:05:11.753Z,16.43
2018-05-13T12:07:39.174Z,16.20
2018-05-13T12:10:07.566Z,15.40
2018-05-13T12:12:34.991Z,17.17
2018-05-13T12:15:02.458Z,16.97
2018-05-13T12:17:29.875Z,14.47
2018-05-13T12:19:57.341Z,15.80
2018-05-13T12:22:24.773Z,16.97
2018-05-13T12:24:53.190Z,16.43
2018-05-13T12:27:20.639Z,16.53
2018-05-13T12:29:48.068Z,15.00
2018-05-13T12:32:15.520Z,13.77
2018-05-13T12:34:42.939Z,16.10
2018-05-13T12:37:11.317Z,15.47
2018-05-13T12:39:38.737Z,15.43
2018-05-13T12:42:06.229Z,14.00
2018-05-13T12:44:33.649Z,18.40
2018-05-13T12:47:01.946Z,17.30
2018-05-13T12:49:29.370Z,16.27
2018-05-13T12:51:56.813Z,16.10
2018-05-13T12:54:24.235Z,16.80
2018-05-13T12:56:51.690Z,17.43
2018-05-13T12:59:19.117Z,17.57
2018-05-13T13:01:47.517Z,16.70
2018-05-13T13:04:14.930Z,18.33
2018-05-13T13:06:43.036Z,16.30
2018-05-13T13:09:10.497Z,17.30
2018-05-13T13:11:37.913Z,16.60
2018-05-13T13:14:05.378Z,15.00
2018-05-13T13:16:32.801Z,15.80
2018-05-13T13:19:00.256Z,15.40
2018-05-13T13:21:27.678Z,15.30
2018-05-13T13:23:55.144Z,15.07
2018-05-13T13:26:22.590Z,14.33
2018-05-13T13:28:50.046Z,14.00
2018-05-13T13:31:17.474Z,12.23
2018-05-13T13:33:45.230Z,11.67
2018-05-13T13:36:12.650Z,13.23
2018-05-13T13:38:40.093Z,12.60
2018-05-13T13:41:07.514Z,12.27
2018-05-13T13:43:34.966Z,11.93
2018-05-13T13:46:02.394Z,10.07
2018-05-13T13:48:29.829Z,9.77
2018-05-13T13:50:57.254Z,10.63
2018-05-13T13:53:24.727Z,8.93
2018-05-13T13:55:52.125Z,8.63
2018-05-13T13:58:19.565Z,8.37
2018-05-13T14:00:46.981Z,7.53
2018-05-13T14:03:14.416Z,8.83
2018-05-13T14:05:41.894Z,8.43
2018-05-13T14:08:09.337Z,7.30
2018-05-13T14:10:36.782Z,7.67
2018-05-13T14:13:07.721Z,7.33
2018-05-13T14:15:37.152Z,8.13
2018-05-13T14:18:08.183Z,7.53
2018-05-13T14:20:36.684Z,7.90
2018-05-13T14:23:04.013Z,7.47
2018-05-13T14:25:31.465Z,7.47
2018-05-13T14:27:58.877Z,7.10
2018-05-13T14:30:26.322Z,7.10
2018-05-13T14:32:53.817Z,7.40
2018-05-13T14:35:21.205Z,6.90
2018-05-13T14:37:48.656Z,7.10
2018-05-13T14:40:17.056Z,8.27
2018-05-13T14:42:44.486Z,7.13
2018-05-13T14:45:11.956Z,7.67
2018-05-13T14:47:39.428Z,7.20
2018-05-13T14:50:07.814Z,7.97
2018-05-13T14:52:35.271Z,6.30
2018-05-13T14:55:02.671Z,7.03
2018-05-13T14:57:30.115Z,6.30
2018-05-13T14:59:57.545Z,6.77
2018-05-13T15:02:24.985Z,7.03
2018-05-13T15:04:52.469Z,6.53
2018-05-13T15:07:30.722Z,6.37
2018-05-13T15:09:58.129Z,6.40
2018-05-13T15:12:26.571Z,6.07
2018-05-13T15:14:53.988Z,6.57
2018-05-13T15:17:21.434Z,5.73
2018-05-13T15:19:48.849Z,6.47
2018-05-13T15:22:17.191Z,6.50
2018-05-13T15:24:44.605Z,5.97
2018-05-13T15:27:12.060Z,6.60
2018-05-13T15:29:39.498Z,6.63
2018-05-13T15:32:06.913Z,7.20
2018-05-13T15:34:34.349Z,7.40
2018-05-13T15:37:01.763Z,5.90
2018-05-13T15:39:29.201Z,6.77
2018-05-13T15:41:56.617Z,6.37
2018-05-13T15:44:30.742Z,7.40
2018-05-13T15:46:59.138Z,7.70
2018-05-13T15:49:28.470Z,6.70
2018-05-13T15:51:55.883Z,6.60
2018-05-13T15:54:23.343Z,7.90
2018-05-13T15:56:51.668Z,6.93
2018-05-13T15:59:19.121Z,6.83
2018-05-13T16:01:48.475Z,6.80
2018-05-13T16:04:15.929Z,6.70
2018-05-13T16:06:43.355Z,7.37
2018-05-13T16:09:10.814Z,7.63
2018-05-13T16:11:40.140Z,7.17
2018-05-13T16:14:07.558Z,7.40
2018-05-13T16:16:35.910Z,7.13
2018-05-13T16:19:03.339Z,6.77
2018-05-13T16:21:30.786Z,7.07
2018-05-13T16:23:59.166Z,5.77
2018-05-13T16:26:26.620Z,6.20
2018-05-13T16:28:54.038Z,5.70
2018-05-13T16:31:22.405Z,5.60
2018-05-13T16:33:49.842Z,5.23
2018-05-13T16:36:17.282Z,5.90
2018-05-13T16:38:44.706Z,5.53
2018-05-13T16:41:12.142Z,5.10
2018-05-13T16:43:39.565Z,5.67
2018-05-13T16:46:07.000Z,4.83
2018-05-13T16:48:34.410Z,4.80
2018-05-13T16:51:01.862Z,5.50
2018-05-13T16:53:29.282Z,6.47
2018-05-13T16:55:56.721Z,5.97
2018-05-13T16:58:24.133Z,5.17
2018-05-13T17:00:51.568Z,5.80
2018-05-13T17:03:19.929Z,5.60
2018-05-13T17:05:47.365Z,5.93
2018-05-13T17:08:14.794Z,5.67
2018-05-13T17:10:44.127Z,4.90
2018-05-13T17:13:11.569Z,6.13
2018-05-13T17:15:39.036Z,5.37
2018-05-13T17:18:06.432Z,5.93
2018-05-13T17:20:33.839Z,6.30
2018-05-13T17:23:01.269Z,6.60
2018-05-13T17:25:28.689Z,5.70
2018-05-13T17:27:56.130Z,5.97
2018-05-13T17:30:24.445Z,4.60
2018-05-13T17:32:51.889Z,5.53
2018-05-13T17:35:19.302Z,6.47
2018-05-13T17:37:46.750Z,6.20
2018-05-13T17:40:14.157Z,6.20
2018-05-13T17:42:41.593Z,5.90
2018-05-13T17:45:09.006Z,5.83
2018-05-13T17:47:37.436Z,5.37
2018-05-13T17:50:04.868Z,5.90
2018-05-13T17:52:32.356Z,5.57
2018-05-13T17:54:59.776Z,5.40
2018-05-13T17:57:29.112Z,6.40
2018-05-13T17:59:57.534Z,5.77
2018-05-13T18:02:24.962Z,5.80
2018-05-13T18:04:52.431Z,5.17
2018-05-13T18:07:19.805Z,5.90
2018-05-13T18:09:47.246Z,5.97
2018-05-13T18:12:18.213Z,5.50
2018-05-13T18:14:45.661Z,5.20
2018-05-13T18:17:13.086Z,5.50
2018-05-13T18:19:40.526Z,5.83
2018-05-13T18:22:07.951Z,5.70
2018-05-13T18:24:35.406Z,5.30
2018-05-13T18:27:03.794Z,5.30
2018-05-13T18:29:32.322Z,4.40
2018-05-13T18:32:01.325Z,4.73
2018-05-13T18:34:28.858Z,5.37
2018-05-13T18:37:19.374Z,5.23
2018-05-13T18:39:55.012Z,6.10
2018-05-13T18:42:30.120Z,5.80
2018-05-13T18:44:59.539Z,5.60
2018-05-13T18:47:27.367Z,5.30
2018-05-13T18:49:54.874Z,5.70
2018-05-13T18:52:22.282Z,6.43
2018-05-13T18:54:49.716Z,4.90
2018-05-13T18:57:17.162Z,4.80
2018-05-13T18:59:51.330Z,7.23
2018-05-13T19:02:22.129Z,5.10
2018-05-13T19:04:50.526Z,5.80
2018-05-13T19:07:19.278Z,5.37
2018-05-13T19:09:46.690Z,6.00
2018-05-13T19:12:14.174Z,5.47
2018-05-13T19:14:42.511Z,5.80
2018-05-13T19:17:10.910Z,4.80
2018-05-13T19:19:38.329Z,5.30
2018-05-13T19:22:26.832Z,5.67
2018-05-13T19:24:55.191Z,5.63
2018-05-13T19:27:24.622Z,5.20
2018-05-13T19:29:52.049Z,5.90
2018-05-13T19:32:20.438Z,5.87
2018-05-13T19:34:47.862Z,5.80
2018-05-13T19:37:15.726Z,5.30
2018-05-13T19:39:43.134Z,5.43
2018-05-13T19:42:14.617Z,5.50
2018-05-13T19:44:44.795Z,5.50
2018-05-13T19:47:14.630Z,5.53
2018-05-13T19:49:43.102Z,5.10
2018-05-13T19:52:10.645Z,5.47
2018-05-13T19:54:40.039Z,5.47
2018-05-13T19:57:08.611Z,5.37
2018-05-13T19:59:37.006Z,5.50
2018-05-13T20:02:04.436Z,7.00
2018-05-13T20:04:31.923Z,5.57
2018-05-13T20:06:59.355Z,6.27
2018-05-13T20:09:26.809Z,5.87
2018-05-13T20:11:54.241Z,6.27
2018-05-13T20:14:21.683Z,5.40
2018-05-13T20:16:49.098Z,5.47
2018-05-13T20:19:16.551Z,6.37
2018-05-13T20:21:44.027Z,6.27
2018-05-13T20:24:11.481Z,5.20
2018-05-13T20:26:43.618Z,6.80
2018-05-13T20:29:12.056Z,5.27
2018-05-13T20:31:39.476Z,7.03
2018-05-13T20:34:06.932Z,5.73
2018-05-13T20:36:34.450Z,6.83
2018-05-13T20:39:01.889Z,6.20
2018-05-13T20:41:29.315Z,7.30
2018-05-13T20:43:56.755Z,5.77
2018-05-13T20:46:25.099Z,5.20
2018-05-13T20:48:52.569Z,6.30
2018-05-13T20:51:20.022Z,6.63
2018-05-13T20:53:47.419Z,5.60
2018-05-13T20:56:14.854Z,6.30
2018-05-13T20:58:42.303Z,5.67
2018-05-13T21:01:09.770Z,7.13
2018-05-13T21:03:37.204Z,6.57
2018-05-13T21:06:04.679Z,6.20
2018-05-13T21:08:33.051Z,6.23
2018-05-13T21:11:01.448Z,6.70
2018-05-13T21:13:28.872Z,6.13
2018-05-13T21:15:56.333Z,6.57
2018-05-13T21:18:23.763Z,6.00
2018-05-13T21:20:51.207Z,6.57
2018-05-13T21:23:19.632Z,5.70
2018-05-13T21:25:47.076Z,7.23
2018-05-13T21:28:14.494Z,5.93
2018-05-13T21:30:41.935Z,5.60
2018-05-13T21:33:09.363Z,5.50
2018-05-13T21:35:40.635Z,6.70
2018-05-13T21:38:08.779Z,6.37
2018-05-13T21:40:36.239Z,9.00
2018-05-13T21:43:03.654Z,7.20
2018-05-13T21:45:31.152Z,6.97
2018-05-13T21:47:58.582Z,5.73
2018-05-13T21:50:26.058Z,6.00
2018-05-13T21:52:53.539Z,7.80
2018-05-13T21:55:20.964Z,6.10
2018-05-13T21:57:48.408Z,6.40
2018-05-13T22:00:15.824Z,5.60
2018-05-13T22:02:43.266Z,6.37
2018-05-13T22:05:10.692Z,6.00
2018-05-13T22:07:38.134Z,5.57
2018-05-13T22:10:05.548Z,6.43
2018-05-13T22:12:33.002Z,5.63
2018-05-13T22:15:00.420Z,5.80
2018-05-13T22:17:27.861Z,5.43
2018-05-13T22:19:55.294Z,7.27
2018-05-13T22:22:22.745Z,6.70
2018-05-13T22:24:51.039Z,7.00
2018-05-13T22:27:18.475Z,6.40
2018-05-13T22:29:46.889Z,5.73
2018-05-13T22:32:15.321Z,6.27
2018-05-13T22:34:43.737Z,7.03
2018-05-13T22:37:15.594Z,5.40
2018-05-13T22:42:41.916Z,6.70
2018-05-13T22:45:20.342Z,6.57
2018-05-13T22:47:48.043Z,5.80
2018-05-13T22:50:20.195Z,5.40
2018-05-13T22:52:48.750Z,5.90
2018-05-13T22:55:20.214Z,6.57
2018-05-13T22:57:47.828Z,6.67
2018-05-13T23:00:15.344Z,6.90
2018-05-13T23:02:42.996Z,7.20
2018-05-13T23:05:11.517Z,5.90
2018-05-13T23:07:38.979Z,6.50
